Time;durP1;ratioP1;P1;durP2;ratioP2;P2;SDS_P1;SDS_P2;PMS_P1;PMS_P2;Temp;Humidity;BMP_temperature;BMP_pressure;BME280_temperature;BME280_humidity;BME280_pressure;Samples;Min_cycle;Max_cycle;Signal;HPM_P1;HPM_P2
2023/02/28 00:00:24;;;;;;;2.50;1.80;;;2.60;99.90;;;;;;5033908;28;25099;-74
2023/02/28 00:02:50;;;;;;;3.03;1.88;;;2.50;99.90;;;;;;5033196;28;25103;-73
2023/02/28 00:05:20;;;;;;;5.70;2.13;;;2.50;99.90;;;;;;5019650;28;25077;-77
2023/02/28 00:07:46;;;;;;;3.75;2.65;;;2.50;99.90;;;;;;5035175;28;25065;-75
2023/02/28 00:10:15;;;;;;;6.18;2.35;;;2.50;99.90;;;;;;5021384;28;25101;-72
2023/02/28 00:12:41;;;;;;;2.85;2.05;;;2.50;99.90;;;;;;5034585;28;25130;-76
2023/02/28 00:15:09;;;;;;;7.68;2.30;;;2.50;99.90;;;;;;5032718;28;25080;-75
2023/02/28 00:17:35;;;;;;;4.43;2.67;;;2.50;99.90;;;;;;5034398;28;25059;-74
2023/02/28 00:20:07;;;;;;;4.75;2.47;;;2.50;99.90;;;;;;5020280;28;25054;-75
2023/02/28 00:22:33;;;;;;;3.97;2.20;;;2.50;99.90;;;;;;5030575;28;25061;-76
2023/02/28 00:24:59;;;;;;;5.57;2.13;;;2.60;99.90;;;;;;5033546;28;25157;-75
2023/02/28 00:27:25;;;;;;;4.15;2.20;;;2.60;99.90;;;;;;5030511;28;25112;-75
2023/02/28 00:29:51;;;;;;;9.95;2.33;;;2.50;99.90;;;;;;5030180;28;25086;-74
2023/02/28 00:32:18;;;;;;;7.35;2.40;;;2.50;99.90;;;;;;5031193;28;25106;-76
2023/02/28 00:34:44;;;;;;;5.60;2.20;;;2.60;99.90;;;;;;5032246;28;25051;-75
2023/02/28 00:37:11;;;;;;;4.00;1.88;;;2.60;99.90;;;;;;5034007;28;25025;-75
2023/02/28 00:39:38;;;;;;;11.75;3.28;;;2.60;99.90;;;;;;5032360;28;25069;-73
2023/02/28 00:42:05;;;;;;;4.88;2.55;;;2.50;99.90;;;;;;5030201;28;25153;-75
2023/02/28 00:44:31;;;;;;;3.55;1.90;;;2.50;99.90;;;;;;5032680;28;25126;-74
2023/02/28 00:46:57;;;;;;;4.38;2.15;;;2.50;99.90;;;;;;5032982;28;25167;-75
2023/02/28 00:49:23;;;;;;;6.85;3.40;;;2.40;99.90;;;;;;5036301;28;25055;-75
2023/02/28 00:51:49;;;;;;;8.10;2.30;;;2.40;99.90;;;;;;5035290;28;25118;-75
2023/02/28 00:54:15;;;;;;;4.93;2.65;;;2.50;99.90;;;;;;5031869;28;25093;-75
2023/02/28 00:56:40;;;;;;;4.80;2.40;;;2.60;99.90;;;;;;5030756;28;25054;-75
2023/02/28 00:59:09;;;;;;;10.27;2.88;;;2.60;99.90;;;;;;5032447;28;25115;-75
2023/02/28 01:01:34;;;;;;;7.85;2.63;;;2.50;99.90;;;;;;5031599;28;25062;-74
2023/02/28 01:04:00;;;;;;;2.63;2.15;;;2.40;99.90;;;;;;5019245;28;25045;-75
2023/02/28 01:06:26;;;;;;;4.95;2.38;;;2.40;99.90;;;;;;5032828;28;25063;-75
2023/02/28 01:08:52;;;;;;;4.70;2.45;;;2.40;99.90;;;;;;5033941;28;25051;-75
2023/02/28 01:11:18;;;;;;;5.38;2.65;;;2.40;99.90;;;;;;5032193;28;25083;-75
2023/02/28 01:13:45;;;;;;;4.15;2.45;;;2.50;99.90;;;;;;5035580;28;25093;-76
2023/02/28 01:16:12;;;;;;;5.80;2.95;;;2.40;99.90;;;;;;5039163;28;25061;-74
2023/02/28 01:18:38;;;;;;;6.80;2.80;;;2.40;99.90;;;;;;5034286;28;25083;-76
2023/02/28 01:21:15;;;;;;;5.45;2.53;;;2.40;99.90;;;;;;5033353;28;25066;-74
2023/02/28 01:23:41;;;;;;;4.82;1.92;;;2.40;99.90;;;;;;5022985;28;25094;-76
2023/02/28 01:26:09;;;;;;;7.55;2.63;;;2.40;99.90;;;;;;5035393;28;25163;-75
2023/02/28 01:28:35;;;;;;;6.25;2.80;;;2.40;99.90;;;;;;5033865;28;25072;-75
2023/02/28 01:31:01;;;;;;;7.65;2.90;;;2.60;99.90;;;;;;5034684;28;25066;-76
2023/02/28 01:33:28;;;;;;;6.85;2.70;;;2.50;99.90;;;;;;5034507;28;25098;-75
2023/02/28 01:36:00;;;;;;;5.60;2.45;;;2.50;99.90;;;;;;5039935;28;25069;-77
2023/02/28 01:38:27;;;;;;;12.40;3.67;;;2.50;99.90;;;;;;5036319;28;25073;-75
2023/02/28 01:40:53;;;;;;;6.00;3.30;;;2.50;99.90;;;;;;5038927;28;25043;-75
2023/02/28 01:43:23;;;;;;;7.43;4.05;;;2.50;99.90;;;;;;5026169;28;25065;-74
2023/02/28 01:45:49;;;;;;;7.60;3.47;;;2.60;99.90;;;;;;5029013;28;25096;-75
2023/02/28 01:48:15;;;;;;;8.32;3.10;;;2.60;99.90;;;;;;5037003;28;25051;-75
2023/02/28 01:50:44;;;;;;;7.70;3.30;;;2.60;99.90;;;;;;5027387;28;25076;-75
2023/02/28 01:53:16;;;;;;;6.50;3.10;;;2.60;99.90;;;;;;5027796;28;25067;-72
2023/02/28 01:55:46;;;;;;;4.50;2.50;;;2.60;99.90;;;;;;5038840;28;25157;-75
2023/02/28 01:58:11;;;;;;;11.68;3.20;;;2.60;99.90;;;;;;5038272;28;25113;-75
2023/02/28 02:00:38;;;;;;;4.93;2.63;;;2.70;99.90;;;;;;5047675;28;25077;-73
2023/02/28 02:03:10;;;;;;;6.50;2.33;;;2.70;99.90;;;;;;5048753;28;25056;-73
2023/02/28 02:05:38;;;;;;;7.68;2.70;;;2.70;99.90;;;;;;5041330;28;25075;-74
2023/02/28 02:08:13;;;;;;;6.60;2.70;;;2.80;99.90;;;;;;5027727;28;25148;-75
2023/02/28 02:10:43;;;;;;;5.43;2.78;;;2.80;99.90;;;;;;5040172;28;25065;-74
2023/02/28 02:13:34;;;;;;;4.45;2.67;;;2.80;99.90;;;;;;5024269;28;25095;-73
2023/02/28 02:16:18;;;;;;;5.00;2.63;;;2.80;99.90;;;;;;5036632;28;25067;-75
2023/02/28 02:18:52;;;;;;;3.72;2.25;;;2.80;99.90;;;;;;5030873;28;25070;-75
2023/02/28 02:21:32;;;;;;;13.07;3.30;;;2.80;99.90;;;;;;5036949;28;25117;-76
2023/02/28 02:24:26;;;;;;;5.20;2.55;;;2.90;99.90;;;;;;5040112;28;25079;-75
2023/02/28 02:26:51;;;;;;;9.43;2.80;;;3.00;99.90;;;;;;5029845;28;25056;-73
2023/02/28 02:29:35;;;;;;;5.53;2.95;;;3.00;99.90;;;;;;5045065;28;25074;-74
2023/02/28 02:32:25;;;;;;;3.38;2.15;;;2.90;99.90;;;;;;5048959;28;25072;-73
2023/02/28 02:34:54;;;;;;;4.80;2.63;;;2.90;99.90;;;;;;5040865;28;25077;-75
2023/02/28 02:37:38;;;;;;;4.38;2.53;;;2.90;99.90;;;;;;5026773;28;25046;-75
2023/02/28 02:40:14;;;;;;;6.05;2.50;;;2.90;99.90;;;;;;5038112;28;25106;-74
2023/02/28 02:43:01;;;;;;;9.43;2.95;;;3.00;99.90;;;;;;5025619;28;25091;-75
2023/02/28 02:45:40;;;;;;;7.00;2.80;;;3.10;99.90;;;;;;5038607;28;25064;-74
2023/02/28 02:48:12;;;;;;;7.28;2.45;;;3.10;99.90;;;;;;5039185;28;25104;-73
2023/02/28 02:50:43;;;;;;;4.18;2.60;;;3.20;99.90;;;;;;5039105;28;25079;-75
2023/02/28 02:53:10;;;;;;;7.30;2.67;;;3.10;99.90;;;;;;5041308;28;25064;-75
2023/02/28 02:55:41;;;;;;;6.22;2.40;;;3.20;99.90;;;;;;5029981;28;25106;-74
2023/02/28 02:58:13;;;;;;;5.13;2.60;;;3.20;99.90;;;;;;5039989;28;25074;-74
2023/02/28 03:00:47;;;;;;;5.20;2.58;;;3.20;99.90;;;;;;5039293;28;25142;-74
2023/02/28 03:03:17;;;;;;;9.05;2.78;;;3.20;99.90;;;;;;5038959;28;25065;-74
2023/02/28 03:05:47;;;;;;;4.35;2.40;;;3.10;99.90;;;;;;5024740;28;25057;-74
2023/02/28 03:08:14;;;;;;;6.45;2.65;;;3.10;99.90;;;;;;5040169;28;25110;-74
2023/02/28 03:10:48;;;;;;;5.15;3.00;;;3.10;99.90;;;;;;5040816;28;25073;-74
2023/02/28 03:13:42;;;;;;;16.17;3.65;;;3.10;99.90;;;;;;5038943;28;25082;-75
2023/02/28 03:16:25;;;;;;;8.30;3.17;;;3.20;99.90;;;;;;5037222;28;25063;-74
2023/02/28 03:19:02;;;;;;;7.35;2.78;;;3.10;99.90;;;;;;5041928;28;25074;-77
2023/02/28 03:21:54;;;;;;;12.00;3.55;;;3.10;99.90;;;;;;5042292;28;25103;-75
2023/02/28 03:24:37;;;;;;;4.38;2.53;;;3.10;99.90;;;;;;5022167;28;25083;-75
2023/02/28 03:27:17;;;;;;;7.60;3.15;;;3.20;99.90;;;;;;5029418;28;25065;-74
2023/02/28 03:29:47;;;;;;;5.78;2.47;;;3.10;99.90;;;;;;5041705;28;25064;-74
2023/02/28 03:32:21;;;;;;;8.85;2.75;;;3.10;99.90;;;;;;5047222;28;25048;-75
2023/02/28 03:34:54;;;;;;;6.18;2.95;;;3.10;99.90;;;;;;5037676;28;25067;-75
2023/02/28 03:37:24;;;;;;;9.30;2.42;;;3.10;99.90;;;;;;5047733;28;25076;-75
2023/02/28 03:40:00;;;;;;;6.28;2.50;;;3.10;99.90;;;;;;5046304;28;25060;-74
2023/02/28 03:42:30;;;;;;;4.55;2.75;;;3.10;99.90;;;;;;5045938;28;25096;-74
2023/02/28 03:45:03;;;;;;;8.63;3.40;;;3.10;99.90;;;;;;5047442;28;25054;-76
2023/02/28 03:47:56;;;;;;;7.00;3.30;;;3.10;99.90;;;;;;5038279;28;25055;-74
2023/02/28 03:50:30;;;;;;;6.68;2.80;;;3.20;99.90;;;;;;5047049;28;25081;-74
2023/02/28 03:53:11;;;;;;;6.20;2.72;;;3.20;99.90;;;;;;5047942;28;25096;-74
2023/02/28 03:55:48;;;;;;;5.47;3.38;;;3.20;99.90;;;;;;5037090;28;25101;-74
2023/02/28 03:58:37;;;;;;;8.50;2.80;;;3.20;99.90;;;;;;5046750;28;25068;-78
2023/02/28 04:01:29;;;;;;;6.35;2.95;;;3.30;99.90;;;;;;5034990;28;25077;-73
2023/02/28 04:03:54;;;;;;;7.88;3.10;;;3.30;99.90;;;;;;5030197;28;25076;-75
2023/02/28 04:06:22;;;;;;;6.32;3.40;;;3.30;99.90;;;;;;5043663;28;25104;-75
2023/02/28 04:08:48;;;;;;;7.55;3.50;;;3.20;99.90;;;;;;5028106;28;25099;-74
2023/02/28 04:11:19;;;;;;;5.93;3.05;;;3.20;99.90;;;;;;5039871;28;25068;-75
2023/02/28 04:13:45;;;;;;;7.80;3.47;;;3.20;99.90;;;;;;5042408;28;25088;-74
2023/02/28 04:16:12;;;;;;;4.53;3.13;;;3.20;99.90;;;;;;5041050;28;25076;-75
2023/02/28 04:18:42;;;;;;;5.43;3.38;;;3.20;99.90;;;;;;5043199;28;25057;-74
2023/02/28 04:21:09;;;;;;;7.28;3.70;;;3.30;99.90;;;;;;5041523;28;25063;-75
2023/02/28 04:23:35;;;;;;;6.22;3.40;;;3.40;99.90;;;;;;5031557;28;25077;-74
2023/02/28 04:26:00;;;;;;;9.75;3.78;;;3.40;99.90;;;;;;5038374;28;25066;-74
2023/02/28 04:28:26;;;;;;;8.38;3.90;;;3.50;99.90;;;;;;5040298;28;25145;-73
2023/02/28 04:31:00;;;;;;;6.82;3.88;;;3.50;99.90;;;;;;5040049;28;25053;-74
2023/02/28 04:33:27;;;;;;;9.20;3.67;;;3.60;99.90;;;;;;5043113;28;25132;-74
2023/02/28 04:36:08;;;;;;;13.98;3.97;;;3.60;99.90;;;;;;5041342;28;25067;-73
2023/02/28 04:38:35;;;;;;;9.80;4.78;;;3.50;99.90;;;;;;5030926;28;25074;-74
2023/02/28 04:41:01;;;;;;;8.75;3.88;;;3.40;99.90;;;;;;5042208;28;25075;-72
2023/02/28 04:43:28;;;;;;;6.53;3.70;;;3.30;99.90;;;;;;5042114;28;25073;-73
2023/02/28 04:45:57;;;;;;;7.88;3.45;;;3.30;99.90;;;;;;5025587;28;25047;-75
2023/02/28 04:48:28;;;;;;;6.47;3.20;;;3.30;99.90;;;;;;5034518;28;25066;-74
2023/02/28 04:50:54;;;;;;;5.68;2.95;;;3.30;99.90;;;;;;5026057;28;25051;-73
2023/02/28 04:53:21;;;;;;;7.03;3.50;;;3.20;99.90;;;;;;5032784;28;25058;-74
2023/02/28 04:55:46;;;;;;;7.78;3.40;;;3.20;99.90;;;;;;5036795;28;25076;-74
2023/02/28 04:58:16;;;;;;;10.38;4.20;;;3.20;99.90;;;;;;5036786;28;25105;-70
2023/02/28 05:00:41;;;;;;;8.30;3.35;;;3.20;99.90;;;;;;5035490;28;25075;-73
2023/02/28 05:03:07;;;;;;;4.82;3.05;;;3.20;99.90;;;;;;5037942;28;25076;-74
2023/02/28 05:05:33;;;;;;;7.40;2.80;;;3.20;99.90;;;;;;5036289;28;25098;-73
2023/02/28 05:07:58;;;;;;;7.72;3.28;;;3.10;99.90;;;;;;5036965;28;25085;-73
2023/02/28 05:10:24;;;;;;;12.68;3.95;;;3.10;99.90;;;;;;5039665;28;25136;-74
2023/02/28 05:12:50;;;;;;;5.13;3.30;;;3.10;99.90;;;;;;5042197;28;25051;-72
2023/02/28 05:15:16;;;;;;;6.22;3.15;;;3.20;99.90;;;;;;5042998;28;25151;-74
2023/02/28 05:17:43;;;;;;;7.32;3.13;;;3.20;99.90;;;;;;5046862;28;25059;-72
2023/02/28 05:20:13;;;;;;;8.75;3.28;;;3.20;99.90;;;;;;5055299;28;25059;-74
2023/02/28 05:22:39;;;;;;;7.32;3.97;;;3.10;99.90;;;;;;5032937;28;25087;-72
2023/02/28 05:25:05;;;;;;;6.60;2.85;;;3.10;99.90;;;;;;5056182;28;25062;-73
2023/02/28 05:27:31;;;;;;;4.25;2.72;;;3.10;99.90;;;;;;5055055;28;25075;-73
2023/02/28 05:29:57;;;;;;;4.07;2.92;;;3.00;99.90;;;;;;5051448;28;25068;-72
2023/02/28 05:32:22;;;;;;;5.43;2.83;;;3.10;99.90;;;;;;5049904;28;25077;-74
2023/02/28 05:34:48;;;;;;;4.85;2.88;;;3.10;99.90;;;;;;5037655;28;25069;-72
2023/02/28 05:37:15;;;;;;;8.95;3.45;;;3.00;99.90;;;;;;5048880;28;25073;-74
2023/02/28 05:39:41;;;;;;;4.80;2.60;;;3.00;99.90;;;;;;5049012;28;25073;-72
2023/02/28 05:42:07;;;;;;;6.90;2.95;;;2.90;99.90;;;;;;5032387;28;25071;-75
2023/02/28 05:44:33;;;;;;;5.53;2.50;;;3.00;99.90;;;;;;5048368;28;25082;-74
2023/02/28 05:46:59;;;;;;;7.15;3.40;;;3.00;99.90;;;;;;5035557;28;25058;-76
2023/02/28 05:49:24;;;;;;;8.93;3.10;;;2.80;99.90;;;;;;5047077;28;25075;-76
2023/02/28 05:51:50;;;;;;;10.90;3.28;;;2.70;99.90;;;;;;5045324;28;25073;-76
2023/02/28 05:54:16;;;;;;;5.07;2.60;;;2.70;99.90;;;;;;5044605;28;25070;-75
2023/02/28 05:56:43;;;;;;;7.82;3.42;;;2.60;99.90;;;;;;5042879;28;25050;-74
2023/02/28 05:59:10;;;;;;;6.47;2.97;;;2.60;99.90;;;;;;5038666;28;25088;-73
2023/02/28 06:01:38;;;;;;;9.98;3.10;;;2.60;99.90;;;;;;5041902;28;25080;-73
2023/02/28 06:04:06;;;;;;;3.42;2.40;;;2.60;99.90;;;;;;5049490;28;25087;-73
2023/02/28 06:06:34;;;;;;;10.10;2.90;;;2.60;99.90;;;;;;5036596;28;25078;-73
2023/02/28 06:09:00;;;;;;;4.63;2.35;;;2.60;99.90;;;;;;5050935;28;25053;-73
2023/02/28 06:11:26;;;;;;;6.15;3.13;;;2.60;99.90;;;;;;5038439;28;25096;-72
2023/02/28 06:13:55;;;;;;;7.47;3.03;;;2.70;99.90;;;;;;5036793;28;25076;-72
2023/02/28 06:16:21;;;;;;;4.85;2.92;;;2.60;99.90;;;;;;5038324;28;25063;-75
2023/02/28 06:18:47;;;;;;;6.80;2.67;;;2.60;99.90;;;;;;5035409;28;25071;-74
2023/02/28 06:21:12;;;;;;;7.50;2.70;;;2.50;99.90;;;;;;5034475;28;25057;-74
2023/02/28 06:23:38;;;;;;;3.95;2.35;;;2.60;99.90;;;;;;5034729;28;25085;-73
2023/02/28 06:26:04;;;;;;;5.32;2.13;;;2.50;99.90;;;;;;5035413;28;25048;-73
2023/02/28 06:28:30;;;;;;;4.20;2.10;;;2.50;99.90;;;;;;5033110;28;25065;-74
2023/02/28 06:30:55;;;;;;;4.05;2.45;;;2.50;99.90;;;;;;5014727;28;25093;-73
2023/02/28 06:33:21;;;;;;;4.72;2.10;;;2.50;99.90;;;;;;5029189;28;25102;-74
2023/02/28 06:35:50;;;;;;;6.28;2.47;;;2.50;99.90;;;;;;5029682;28;25069;-75
2023/02/28 06:38:15;;;;;;;9.63;2.55;;;2.40;99.90;;;;;;5030942;28;25103;-75
2023/02/28 06:40:41;;;;;;;6.78;2.13;;;2.40;99.90;;;;;;5033166;28;25091;-74
2023/02/28 06:43:07;;;;;;;10.98;2.67;;;2.40;99.90;;;;;;5034675;28;25063;-73
2023/02/28 06:45:33;;;;;;;3.55;2.25;;;2.40;99.90;;;;;;5029652;28;25127;-75
2023/02/28 06:47:59;;;;;;;3.30;2.05;;;2.40;99.90;;;;;;5030228;28;25125;-74
2023/02/28 06:50:27;;;;;;;5.53;2.33;;;2.40;99.90;;;;;;5031131;28;25054;-76
2023/02/28 06:52:54;;;;;;;6.13;2.17;;;2.30;99.90;;;;;;5031233;28;25111;-76
2023/02/28 06:55:20;;;;;;;7.25;2.50;;;2.30;99.90;;;;;;5023014;28;25051;-72
2023/02/28 06:57:45;;;;;;;5.07;2.38;;;2.40;99.90;;;;;;5031524;28;25074;-73
2023/02/28 07:00:11;;;;;;;5.47;2.50;;;2.50;99.90;;;;;;5034253;28;25058;-76
2023/02/28 07:02:37;;;;;;;13.07;2.40;;;2.50;99.90;;;;;;5037144;28;25071;-74
2023/02/28 07:05:05;;;;;;;4.05;2.28;;;2.50;99.90;;;;;;5034858;28;25076;-75
2023/02/28 07:07:30;;;;;;;4.47;1.98;;;2.50;99.90;;;;;;5030892;28;25138;-75
2023/02/28 07:09:56;;;;;;;4.65;2.40;;;2.50;99.90;;;;;;5026612;28;25131;-74
2023/02/28 07:12:22;;;;;;;4.53;2.65;;;2.60;99.90;;;;;;5027376;28;25117;-74
2023/02/28 07:14:47;;;;;;;5.30;2.72;;;2.70;99.90;;;;;;5024935;28;25106;-76
2023/02/28 07:17:13;;;;;;;3.50;2.45;;;2.70;99.90;;;;;;5014265;28;25111;-77
2023/02/28 07:19:39;;;;;;;9.32;3.10;;;2.70;99.90;;;;;;5024145;28;25094;-74
2023/02/28 07:22:05;;;;;;;6.55;2.85;;;2.80;99.90;;;;;;5014183;28;25072;-76
2023/02/28 07:24:31;;;;;;;4.13;2.47;;;2.80;99.90;;;;;;5014464;28;25150;-75
2023/02/28 07:26:57;;;;;;;3.45;2.10;;;3.10;99.90;;;;;;5025300;28;25122;-75
2023/02/28 07:29:22;;;;;;;7.55;2.92;;;3.20;99.90;;;;;;5028037;28;25120;-74
2023/02/28 07:31:50;;;;;;;6.35;2.30;;;3.20;99.90;;;;;;5023776;28;25151;-76
2023/02/28 07:34:15;;;;;;;4.30;2.28;;;3.20;99.90;;;;;;5024199;28;25072;-75
2023/02/28 07:36:41;;;;;;;6.57;2.08;;;3.00;99.90;;;;;;5028016;28;25056;-76
2023/02/28 07:39:09;;;;;;;6.00;2.30;;;3.00;99.90;;;;;;5028898;28;25058;-76
2023/02/28 07:41:37;;;;;;;9.90;2.25;;;3.00;99.90;;;;;;5025740;28;25073;-74
2023/02/28 07:44:03;;;;;;;8.13;2.20;;;2.90;99.90;;;;;;5026416;28;25080;-73
2023/02/28 07:46:34;;;;;;;6.32;2.20;;;2.90;99.90;;;;;;5025444;28;25063;-74
2023/02/28 07:49:00;;;;;;;4.78;2.60;;;2.90;99.90;;;;;;5028249;28;25105;-77
2023/02/28 07:51:26;;;;;;;15.00;3.90;;;3.00;99.90;;;;;;5027716;28;25100;-76
2023/02/28 07:53:51;;;;;;;4.28;2.80;;;3.10;99.90;;;;;;5028630;28;25148;-73
2023/02/28 07:56:17;;;;;;;10.18;2.92;;;3.10;99.90;;;;;;5027397;28;25049;-74
2023/02/28 07:58:42;;;;;;;8.13;2.63;;;3.20;99.90;;;;;;5028572;28;25133;-74
2023/02/28 08:01:09;;;;;;;3.97;2.22;;;3.00;99.90;;;;;;5030015;28;25081;-76
2023/02/28 08:03:35;;;;;;;7.78;2.63;;;3.00;99.90;;;;;;5026693;28;25154;-76
2023/02/28 08:06:03;;;;;;;5.30;3.03;;;3.20;99.90;;;;;;5029804;28;25065;-73
2023/02/28 08:08:31;;;;;;;3.20;2.13;;;3.30;99.90;;;;;;5027550;28;25146;-75
2023/02/28 08:11:05;;;;;;;8.63;2.80;;;3.30;99.90;;;;;;5018582;28;25047;-74
2023/02/28 08:13:31;;;;;;;14.57;3.75;;;3.20;99.90;;;;;;5026797;28;25145;-74
2023/02/28 08:15:57;;;;;;;9.00;3.35;;;3.20;99.90;;;;;;5029549;28;25076;-75
2023/02/28 08:18:23;;;;;;;10.48;2.80;;;3.20;99.90;;;;;;5027538;28;25067;-76
2023/02/28 08:20:48;;;;;;;5.57;2.92;;;3.40;99.90;;;;;;5026784;28;25068;-76
2023/02/28 08:23:14;;;;;;;7.18;2.60;;;3.40;99.90;;;;;;5016423;28;25074;-75
2023/02/28 08:25:40;;;;;;;4.95;3.38;;;3.40;99.90;;;;;;5025689;28;25090;-75
2023/02/28 08:28:05;;;;;;;8.13;2.50;;;3.50;99.90;;;;;;5027960;28;25073;-75
2023/02/28 08:30:31;;;;;;;4.88;2.97;;;3.30;99.90;;;;;;5028176;28;25046;-74
2023/02/28 08:32:57;;;;;;;11.45;3.00;;;3.40;99.90;;;;;;5049542;28;25067;-75
2023/02/28 08:35:22;;;;;;;5.60;2.63;;;3.30;99.90;;;;;;5049990;28;25072;-76
2023/02/28 08:37:49;;;;;;;5.68;3.10;;;3.30;99.90;;;;;;5035327;28;25073;-76
2023/02/28 08:40:17;;;;;;;5.07;3.35;;;3.30;99.90;;;;;;5029841;28;25061;-74
2023/02/28 08:42:47;;;;;;;9.73;3.20;;;3.30;99.90;;;;;;5029123;28;25053;-74
2023/02/28 08:45:14;;;;;;;4.50;2.83;;;3.40;99.90;;;;;;5027410;28;25134;-75
2023/02/28 08:47:40;;;;;;;4.75;2.53;;;3.40;99.90;;;;;;5026765;28;25163;-74
2023/02/28 08:50:07;;;;;;;4.85;2.60;;;3.50;99.90;;;;;;5026374;28;25071;-75
2023/02/28 08:52:32;;;;;;;5.95;2.90;;;3.50;99.90;;;;;;5026332;28;25104;-74
2023/02/28 08:54:58;;;;;;;7.03;2.80;;;3.50;99.90;;;;;;5022845;28;25109;-74
2023/02/28 08:57:26;;;;;;;5.70;2.65;;;3.30;99.90;;;;;;5023883;28;25066;-74
2023/02/28 08:59:52;;;;;;;6.03;2.97;;;3.30;99.90;;;;;;5024462;28;25151;-75
2023/02/28 09:02:17;;;;;;;5.05;3.15;;;3.30;99.90;;;;;;5024910;28;25143;-75
2023/02/28 09:04:45;;;;;;;3.45;2.95;;;3.40;99.90;;;;;;5023911;28;25074;-74
2023/02/28 09:07:11;;;;;;;11.95;3.25;;;3.40;99.90;;;;;;5027263;28;25073;-74
2023/02/28 09:09:37;;;;;;;8.57;3.30;;;3.60;99.90;;;;;;5024802;28;25063;-75
2023/02/28 09:12:03;;;;;;;6.95;2.90;;;3.50;99.90;;;;;;5014615;28;25118;-74
2023/02/28 09:14:29;;;;;;;6.57;2.80;;;3.40;99.90;;;;;;5025753;28;25056;-75
2023/02/28 09:16:54;;;;;;;5.65;3.67;;;3.40;99.90;;;;;;5025676;28;25062;-75
2023/02/28 09:19:20;;;;;;;4.97;2.90;;;3.30;99.90;;;;;;5025199;28;25084;-72
2023/02/28 09:21:46;;;;;;;4.32;2.67;;;3.50;99.90;;;;;;5024686;28;25405;-74
2023/02/28 09:24:14;;;;;;;7.47;2.72;;;3.60;99.90;;;;;;5025552;28;25061;-72
2023/02/28 09:26:39;;;;;;;6.05;2.63;;;3.40;99.90;;;;;;5023555;28;25093;-76
2023/02/28 09:29:06;;;;;;;4.00;2.50;;;3.30;99.90;;;;;;5025220;28;25153;-75
2023/02/28 09:31:31;;;;;;;4.03;2.72;;;3.30;99.90;;;;;;5027978;28;25141;-73
2023/02/28 09:33:59;;;;;;;5.65;2.53;;;3.40;99.90;;;;;;5023821;28;25060;-77
2023/02/28 09:36:26;;;;;;;2.97;2.22;;;3.50;99.90;;;;;;5024730;28;25057;-75
2023/02/28 09:38:52;;;;;;;3.25;1.92;;;3.40;99.90;;;;;;5022977;28;25121;-74
2023/02/28 09:41:25;;;;;;;3.47;1.83;;;3.20;99.90;;;;;;5020056;28;25179;-72
2023/02/28 09:43:55;;;;;;;3.38;1.90;;;3.30;99.90;;;;;;5020918;28;25087;-74
2023/02/28 09:46:29;;;;;;;3.85;2.00;;;3.40;99.90;;;;;;5009636;28;25147;-74
2023/02/28 09:48:56;;;;;;;4.38;1.77;;;3.30;99.90;;;;;;5021198;28;25063;-74
2023/02/28 09:51:44;;;;;;;3.45;1.63;;;3.40;99.90;;;;;;5021382;28;25091;-75
2023/02/28 09:54:22;;;;;;;4.00;1.77;;;3.50;99.90;;;;;;5021405;28;25043;-76
2023/02/28 09:56:55;;;;;;;3.10;2.00;;;3.50;99.90;;;;;;5024602;28;25058;-76
2023/02/28 09:59:36;;;;;;;2.85;1.63;;;3.50;1.00;;;;;;5024895;28;25153;-75
2023/02/28 10:02:29;;;;;;;3.78;1.75;;;3.60;1.00;;;;;;5024487;28;25117;-76
2023/02/28 10:04:59;;;;;;;5.38;1.48;;;3.50;28.90;;;;;;5027446;28;25128;-76
2023/02/28 10:08:01;;;;;;;4.40;1.58;;;3.60;99.90;;;;;;5033150;28;25065;-76
2023/02/28 10:10:55;;;;;;;3.65;1.75;;;3.60;1.00;;;;;;5030461;28;25099;-75
2023/02/28 10:13:55;;;;;;;1.38;1.27;;;3.90;99.90;;;;;;5025648;28;25055;-77
2023/02/28 10:16:27;;;;;;;2.10;1.38;;;4.10;99.90;;;;;;5027207;28;25048;-75
2023/02/28 10:19:20;;;;;;;2.88;1.45;;;4.50;63.60;;;;;;5026565;28;25065;-74
2023/02/28 10:22:21;;;;;;;1.42;1.33;;;4.60;1.00;;;;;;5025983;28;25057;-75
2023/02/28 10:24:51;;;;;;;3.97;1.30;;;4.70;99.90;;;;;;5025047;28;25070;-73
2023/02/28 10:27:27;;;;;;;2.55;1.40;;;4.80;57.40;;;;;;5026894;28;25109;-75
2023/02/28 10:29:56;;;;;;;1.63;1.30;;;5.00;1.00;;;;;;5025416;28;25089;-75
2023/02/28 10:32:35;;;;;;;2.78;1.38;;;5.00;99.90;;;;;;5026942;28;25057;-74
2023/02/28 10:35:07;;;;;;;2.38;1.52;;;5.30;99.90;;;;;;5025492;28;25165;-76
2023/02/28 10:37:37;;;;;;;3.55;1.58;;;5.50;99.90;;;;;;5028103;28;25064;-74
2023/02/28 10:40:24;;;;;;;1.60;1.13;;;5.30;99.90;;;;;;5028167;28;25106;-75
2023/02/28 10:43:04;;;;;;;2.35;1.30;;;5.00;74.00;;;;;;5028841;28;25147;-72
2023/02/28 10:45:36;;;;;;;1.40;1.00;;;4.90;84.20;;;;;;5027493;28;25157;-75
2023/02/28 10:48:25;;;;;;;1.85;1.10;;;5.00;47.40;;;;;;5029270;28;25058;-76
2023/02/28 10:50:54;;;;;;;1.30;1.20;;;4.90;1.00;;;;;;5028386;28;25076;-77
2023/02/28 10:53:32;;;;;;;2.90;1.67;;;4.90;1.00;;;;;;5029148;28;25071;-75
2023/02/28 10:56:07;;;;;;;1.40;1.30;;;4.80;1.00;;;;;;5028931;28;25063;-74
2023/02/28 10:58:53;;;;;;;2.65;1.58;;;5.00;2.60;;;;;;5029498;28;25100;-73
2023/02/28 11:01:34;;;;;;;1.73;1.38;;;5.30;17.40;;;;;;5026002;28;25145;-74
2023/02/28 11:04:01;;;;;;;1.23;1.13;;;5.40;1.00;;;;;;5038757;28;25098;-74
2023/02/28 11:06:34;;;;;;;1.67;1.30;;;5.60;1.00;;;;;;5030045;28;25106;-73
2023/02/28 11:09:03;;;;;;;3.17;1.20;;;5.40;1.00;;;;;;5025641;28;25109;-73
2023/02/28 11:11:40;;;;;;;2.95;1.38;;;5.50;1.00;;;;;;5026958;28;25107;-74
2023/02/28 11:14:19;;;;;;;2.03;1.52;;;5.50;1.00;;;;;;5020949;28;25075;-73
2023/02/28 11:16:44;;;;;;;1.73;1.20;;;5.50;1.00;;;;;;5025455;28;25078;-74
2023/02/28 11:19:20;;;;;;;3.70;1.52;;;5.50;99.90;;;;;;5028442;28;25078;-74
2023/02/28 11:21:57;;;;;;;3.45;1.38;;;5.30;99.90;;;;;;5025426;28;25065;-73
2023/02/28 11:24:36;;;;;;;2.35;1.30;;;5.40;99.90;;;;;;5023548;28;25159;-74
2023/02/28 11:27:02;;;;;;;2.03;1.35;;;5.70;99.90;;;;;;5025778;28;25101;-75
2023/02/28 11:29:32;;;;;;;1.42;1.33;;;6.40;99.90;;;;;;5030588;28;25135;-75
2023/02/28 11:32:19;;;;;;;1.42;1.10;;;6.80;99.90;;;;;;5026943;28;25163;-73
2023/02/28 11:34:53;;;;;;;2.08;1.30;;;6.80;99.90;;;;;;5020640;28;25079;-74
2023/02/28 11:37:20;;;;;;;2.17;1.08;;;6.50;99.90;;;;;;5025688;28;25087;-75
2023/02/28 11:39:46;;;;;;;1.70;1.25;;;6.70;99.90;;;;;;5022957;28;25074;-74
2023/02/28 11:42:22;;;;;;;3.05;1.58;;;6.70;99.90;;;;;;5024389;28;25078;-74
2023/02/28 11:45:10;;;;;;;3.72;1.50;;;6.70;99.90;;;;;;5013550;28;25059;-74
2023/02/28 11:47:54;;;;;;;2.05;1.23;;;6.70;99.90;;;;;;5046994;28;25073;-76
2023/02/28 11:50:45;;;;;;;1.45;1.35;;;7.00;55.00;;;;;;5047552;28;25067;-73
2023/02/28 11:53:26;;;;;;;4.15;1.35;;;6.70;94.00;;;;;;5026116;28;25054;-75
2023/02/28 11:55:58;;;;;;;1.10;1.00;;;7.10;99.90;;;;;;5026966;28;25146;-76
2023/02/28 11:58:53;;;;;;;1.27;1.15;;;7.10;69.70;;;;;;5025976;28;25132;-74
2023/02/28 12:01:38;;;;;;;1.42;1.17;;;7.20;2.60;;;;;;5025940;28;25068;-76
2023/02/28 12:04:36;;;;;;;1.38;1.27;;;7.10;18.90;;;;;;5025698;28;25072;-75
2023/02/28 12:07:30;;;;;;;4.47;1.50;;;7.60;1.00;;;;;;5020655;28;26171;-75
2023/02/28 12:10:09;;;;;;;1.90;1.10;;;7.30;1.00;;;;;;4999910;28;25070;-76
2023/02/28 12:13:12;;;;;;;1.27;1.15;;;7.50;1.00;;;;;;5026012;28;25092;-76
2023/02/28 12:15:45;;;;;;;;;;;7.20;1.00;;;;;;5012389;28;25153;-74
2023/02/28 12:18:36;;;;;;;3.15;1.50;;;6.90;1.00;;;;;;5023912;28;24079;-75
2023/02/28 12:21:32;;;;;;;2.40;1.20;;;6.80;1.00;;;;;;5024007;28;25054;-75
2023/02/28 12:24:31;;;;;;;1.38;1.10;;;7.00;1.00;;;;;;5024970;28;25119;-75
2023/02/28 12:27:00;;;;;;;2.83;1.30;;;7.60;1.00;;;;;;5021303;28;25075;-74
2023/02/28 12:29:29;;;;;;;1.60;1.20;;;7.70;1.00;;;;;;5022866;28;25081;-78
2023/02/28 12:32:14;;;;;;;2.70;1.27;;;7.60;1.00;;;;;;5022199;28;25071;-76
2023/02/28 12:34:45;;;;;;;1.40;1.30;;;7.40;1.00;;;;;;5024849;28;25146;-74
2023/02/28 12:37:24;;;;;;;2.63;1.30;;;7.80;1.00;;;;;;5023750;28;25072;-74
2023/02/28 12:39:59;;;;;;;3.47;1.38;;;7.70;1.00;;;;;;5023294;28;25194;-76
2023/02/28 12:42:40;;;;;;;2.33;1.45;;;8.00;99.90;;;;;;5022877;28;25095;-74
2023/02/28 12:45:22;;;;;;;2.13;1.50;;;7.50;1.00;;;;;;5011822;28;25081;-74
2023/02/28 12:47:52;;;;;;;1.98;1.30;;;7.70;99.90;;;;;;5015507;28;25078;-76
2023/02/28 12:50:18;;;;;;;5.15;1.60;;;7.60;99.90;;;;;;5024142;28;25083;-73
2023/02/28 12:52:50;;;;;;;3.97;1.35;;;8.20;1.00;;;;;;5024463;28;25066;-73
2023/02/28 12:55:35;;;;;;;3.70;1.70;;;7.80;99.90;;;;;;5023122;28;25083;-73
2023/02/28 12:58:19;;;;;;;1.75;1.23;;;8.40;99.90;;;;;;4995701;28;25058;-74
2023/02/28 13:01:11;;;;;;;4.97;1.30;;;8.50;99.90;;;;;;5023487;28;25146;-76
2023/02/28 13:03:45;;;;;;;2.78;1.30;;;8.60;99.90;;;;;;5025096;28;25118;-75
2023/02/28 13:06:28;;;;;;;1.30;1.20;;;7.90;99.90;;;;;;5023160;28;25065;-75
2023/02/28 13:09:05;;;;;;;3.13;1.75;;;7.30;99.90;;;;;;5014546;28;25062;-73
2023/02/28 13:11:54;;;;;;;1.70;1.20;;;7.10;99.90;;;;;;5024812;28;25080;-72
2023/02/28 13:14:30;;;;;;;2.88;1.50;;;7.30;99.90;;;;;;5026369;28;25090;-73
2023/02/28 13:17:01;;;;;;;1.23;1.15;;;7.50;99.90;;;;;;5024687;28;25057;-74
2023/02/28 13:19:31;;;;;;;1.48;1.30;;;7.70;99.90;;;;;;5024775;28;25107;-76